Flight Track Log - Related Links

Times and Time Zones

All times are in EDT time to prevent confusion due to time zone crossing. See the CSN6811 flight status page for this flight to view local times or setup timezone preferences in your user account.

Time Position Orientation Groundspeed Altitude Reporting Facility
EDT Latitude Longitude Course Direction KTS MPH feet Rate Location/Type
Wed 08:19:00 PM 43.8665 87.3428 247° West  Level Estimated
Wed 08:20:00 PM 43.8258 87.2115 247° West  Level Estimated
Wed 08:21:00 PM 43.7849 87.0804 247° West  Level Estimated
Wed 08:22:00 PM 43.7439 86.9495 247° West  Level Estimated
Wed 08:23:00 PM 43.7027 86.8187 246° West  Level Estimated
Wed 08:24:00 PM 43.6614 86.6882 246° West  Level Estimated
Wed 08:25:00 PM 43.6199 86.5578 246° West  Level Estimated
Wed 08:26:00 PM 43.5783 86.4276 246° West  Level Estimated
Wed 08:27:00 PM 43.5365 86.2976 246° West  Level Estimated
Wed 08:28:00 PM 43.4946 86.1677 246° West  Level Estimated
Wed 08:29:00 PM 43.4525 86.0381 246° West  Level Estimated
Wed 08:30:00 PM 43.4103 85.9086 246° West  Level Estimated
Wed 08:31:00 PM 43.3650 85.7704 246° West  Level Estimated
Wed 08:32:00 PM 43.3196 85.6324 246° West  Level Estimated
Wed 08:33:00 PM 43.2740 85.4946 246° West  Level Estimated
Wed 08:34:00 PM 43.2282 85.3570 245° Southwest  Level Estimated
Wed 08:35:00 PM 43.1823 85.2196 245° Southwest  Level Estimated
Wed 08:36:00 PM 43.1361 85.0824 245° Southwest  Level Estimated
Wed 08:37:00 PM 43.0899 84.9454 245° Southwest  Level Estimated
Wed 08:38:00 PM 43.0434 84.8087 245° Southwest  Level Estimated
Wed 08:39:00 PM 42.9968 84.6721 245° Southwest  Level Estimated
Wed 08:40:00 PM 42.9501 84.5358 245° Southwest  Level Estimated
Wed 08:41:00 PM 42.9031 84.3996 245° Southwest  Level Estimated
Wed 08:42:00 PM 42.8561 84.2637 245° Southwest  Level Estimated
Wed 08:43:00 PM 42.8088 84.1280 245° Southwest  Level Estimated
Wed 08:44:00 PM 42.7614 83.9924 245° Southwest  Level Estimated
Wed 08:45:00 PM 42.7138 83.8571 244° Southwest  Level Estimated
Wed 08:46:00 PM 42.6661 83.7220 244° Southwest  Level Estimated
Wed 08:47:00 PM 42.6183 83.5871 244° Southwest  Level Estimated
Wed 08:48:00 PM 42.5702 83.4525 244° Southwest  Level Estimated
Wed 08:49:00 PM 42.5220 83.3180 244° Southwest  Level Estimated
Wed 08:50:00 PM 42.4737 83.1837 244° Southwest  Level Estimated
Wed 08:51:00 PM 42.4252 83.0496 244° Southwest  Level Estimated
Wed 08:52:00 PM 42.3765 82.9158 244° Southwest  Level Estimated
Wed 08:53:00 PM 42.3277 82.7821 244° Southwest  Level Estimated
Wed 08:54:00 PM 42.2787 82.6487 244° Southwest  Level Estimated
Wed 08:55:00 PM 42.2296 82.5154 244° Southwest  Level Estimated
Wed 08:56:00 PM 42.1803 82.3824 243° Southwest  Level Estimated
Wed 08:57:00 PM 42.1308 82.2496 243° Southwest  Level Estimated
Wed 08:58:00 PM 42.0812 82.1170 243° Southwest  Level Estimated
Wed 08:59:00 PM 42.0315 81.9846 243° Southwest  Level Estimated
Wed 09:00:00 PM 41.9816 81.8524 243° Southwest  Level Estimated
Wed 09:01:00 PM 41.9316 81.7204 243° Southwest  Level Estimated
Wed 09:02:00 PM 41.8814 81.5886 243° Southwest  Level Estimated
Wed 09:03:00 PM 41.8310 81.4570 243° Southwest  Level Estimated
Wed 09:04:00 PM 41.7805 81.3257 243° Southwest  Level Estimated
Wed 09:05:00 PM 41.7299 81.1945 243° Southwest  Level Estimated
Wed 09:06:00 PM 41.6791 81.0635 243° Southwest  Level Estimated
Wed 09:07:00 PM 41.6281 80.9328 243° Southwest  Level Estimated
Wed 09:08:00 PM 41.5770 80.8023 242° Southwest  Level Estimated
Wed 09:09:00 PM 41.5258 80.6719 242° Southwest  Level Estimated
Wed 09:10:00 PM 41.4744 80.5418 242° Southwest  Level Estimated
Wed 09:11:00 PM 41.4229 80.4119 242° Southwest  Level Estimated
Wed 09:12:00 PM 41.3712 80.2822 242° Southwest  Level Estimated
Wed 09:13:00 PM 41.3194 80.1526 242° Southwest  Level Estimated
Wed 09:14:00 PM 41.2674 80.0233 242° Southwest  Level Estimated
Wed 09:15:00 PM 41.2153 79.8942 242° Southwest  Level Estimated
Wed 09:16:00 PM 41.1630 79.7654 242° Southwest  Level Estimated
Wed 09:17:00 PM 41.1106 79.6367 242° Southwest  Level Estimated
Wed 09:18:00 PM 41.0581 79.5082 242° Southwest  Level Estimated
Wed 09:19:00 PM 41.0054 79.3799 241° Southwest  Level Estimated
Wed 09:20:00 PM 40.9526 79.2518 241° Southwest  Level Estimated
Wed 09:21:00 PM 40.8996 79.1240 241° Southwest  Level Estimated
Wed 09:22:00 PM 40.8465 78.9963 241° Southwest  Level Estimated
Wed 09:23:00 PM 40.7932 78.8689 241° Southwest  Level Estimated
Wed 09:24:00 PM 40.7398 78.7416 241° Southwest  Level Estimated
Wed 09:25:00 PM 40.6863 78.6146 241° Southwest  Level Estimated
Wed 09:26:00 PM 40.6326 78.4877 241° Southwest  Level Estimated
Wed 09:27:00 PM 40.5788 78.3611 241° Southwest  Level Estimated
Wed 09:28:00 PM 40.5249 78.2347 241° Southwest  Level Estimated
Wed 09:29:00 PM 40.4708 78.1084 241° Southwest  Level Estimated
Wed 09:30:00 PM 40.4166 77.9824 241° Southwest  Level Estimated
Wed 09:31:00 PM 40.3622 77.8566 240° Southwest  Level Estimated
Wed 09:32:00 PM 40.3077 77.7310 240° Southwest  Level Estimated
Wed 09:33:00 PM 40.2531 77.6055 240° Southwest  Level Estimated
Wed 09:34:00 PM 40.1983 77.4803 240° Southwest  Level Estimated
Wed 09:35:00 PM 40.1434 77.3553 240° Southwest  Level Estimated
Wed 09:36:00 PM 40.0884 77.2305 240° Southwest  Level Estimated
Wed 09:37:00 PM 40.0332 77.1059 240° Southwest  Level Estimated
Wed 09:38:00 PM 39.9779 76.9815 240° Southwest  Level Estimated
Wed 09:39:00 PM 39.9225 76.8573 240° Southwest  Level Estimated
Wed 09:40:00 PM 39.8669 76.7333 240° Southwest  Level Estimated
Wed 09:41:00 PM 39.8112 76.6095 240° Southwest  Level Estimated
Wed 09:42:00 PM 39.7554 76.4859 240° Southwest  Level Estimated
Wed 09:43:00 PM 39.6994 76.3625 240° Southwest  Level Estimated
Wed 09:44:00 PM 39.6433 76.2393 239° Southwest  Level Estimated
Wed 09:45:00 PM 39.5871 76.1163 239° Southwest  Level Estimated
Wed 09:46:00 PM 39.5432 76.0206 239° Southwest  Level Estimated
Wed 09:47:00 PM 39.5432 76.0206 North  Level Estimated
Wed 09:48:00 PM 39.5432 76.0206 North  Level Estimated
Wed 09:49:00 PM 39.5432 76.0206 North  Level Estimated
Wed 09:50:00 PM 39.5432 76.0206 North  Level Estimated
Wed 09:51:00 PM 39.5432 76.0206 North  Level Estimated
Wed 09:52:00 PM 39.5432 76.0206 North  Level Estimated
Wed 09:53:00 PM 39.5432 76.0206 North  Level Estimated
Wed 09:54:00 PM 39.5432 76.0206 North  Level Estimated
Wed 09:55:00 PM 39.5432 76.0206 North  Level Estimated
Wed 09:56:00 PM 39.5432 76.0206 North  Level Estimated
Wed 09:57:00 PM 39.5432 76.0206 North  Level Estimated
Wed 09:58:00 PM 39.5432 76.0206 North  Level Estimated
Wed 09:59:00 PM 39.5432 76.0206 North  Level Estimated

Login

Don't have an account? Register now (free) for customized features, flight alerts, and more!